createdAt,value
2022-11-23T00:00:17.056Z,2.4
2022-11-23T00:01:17.799Z,2.4
2022-11-23T00:02:19.031Z,1
2022-11-23T00:03:18.422Z,2
2022-11-23T00:04:18.274Z,2.4
2022-11-23T00:05:18.312Z,2.4
2022-11-23T00:06:18.934Z,2.4
2022-11-23T00:07:18.474Z,2.4
2022-11-23T00:08:18.964Z,2.4
2022-11-23T00:09:18.299Z,2
2022-11-23T00:10:18.620Z,2.4
2022-11-23T00:11:18.112Z,2.4
2022-11-23T00:12:18.682Z,2.4
2022-11-23T00:13:18.539Z,2.4
2022-11-23T00:14:18.880Z,2
2022-11-23T00:15:18.682Z,2.5
2022-11-23T00:16:18.825Z,2.4
2022-11-23T00:17:18.264Z,2.5
2022-11-23T00:18:18.596Z,2.5
2022-11-23T00:19:18.442Z,2
2022-11-23T00:20:18.863Z,2.5
2022-11-23T00:21:17.869Z,2.5
2022-11-23T00:22:17.286Z,2.5
2022-11-23T00:23:18.071Z,2.5
2022-11-23T00:24:17.097Z,2.4
2022-11-23T00:25:19.177Z,2.4
2022-11-23T00:26:18.845Z,2.5
2022-11-23T00:27:18.596Z,2.4
2022-11-23T00:28:19.042Z,2.4
2022-11-23T00:29:17.970Z,2.4
2022-11-23T00:30:18.684Z,2.5
2022-11-23T00:31:18.840Z,2.4
2022-11-23T00:32:18.781Z,2.5
2022-11-23T00:33:18.857Z,2.4
2022-11-23T00:34:18.202Z,2.5
2022-11-23T00:35:18.643Z,2.5
2022-11-23T00:36:17.972Z,2.5
2022-11-23T00:37:18.310Z,2.5
2022-11-23T00:38:18.734Z,2.5
2022-11-23T00:39:18.686Z,2.4
2022-11-23T00:40:18.162Z,2.5
2022-11-23T00:41:18.551Z,2.5
2022-11-23T00:42:18.893Z,2.5
2022-11-23T00:43:18.533Z,2.4
2022-11-23T00:44:18.771Z,2.4
2022-11-23T00:45:18.102Z,2.4
2022-11-23T00:46:17.178Z,2.4
2022-11-23T00:47:18.439Z,2.4
2022-11-23T00:48:18.811Z,2.4
2022-11-23T00:49:18.694Z,2.4
2022-11-23T00:50:18.555Z,2.4
2022-11-23T00:51:18.433Z,2.4
2022-11-23T00:52:18.649Z,2.4
2022-11-23T00:53:18.441Z,2.4
2022-11-23T00:54:17.894Z,2.4
2022-11-23T00:55:18.185Z,2.4
2022-11-23T00:56:18.554Z,2.4
2022-11-23T00:57:18.523Z,2.4
2022-11-23T00:58:18.574Z,2.4
2022-11-23T00:59:18.037Z,2.4
2022-11-23T01:00:18.561Z,2
2022-11-23T01:01:18.550Z,2
2022-11-23T01:02:18.611Z,2.4
2022-11-23T01:03:18.625Z,2.4
2022-11-23T01:04:18.038Z,2
2022-11-23T01:05:18.348Z,2.4
2022-11-23T01:06:18.747Z,2.4
2022-11-23T01:07:18.448Z,2.4
2022-11-23T01:08:18.926Z,2.4
2022-11-23T01:09:18.505Z,2.4
2022-11-23T01:10:18.277Z,2.4
2022-11-23T01:11:18.716Z,2.4
2022-11-23T01:12:18.996Z,2.4
2022-11-23T01:13:17.747Z,2.4
2022-11-23T01:14:18.133Z,2.4
2022-11-23T01:15:17.087Z,2.4
2022-11-23T01:16:26.326Z,2.4
2022-11-23T01:17:18.709Z,2.4
2022-11-23T01:18:18.765Z,2.4
2022-11-23T01:19:18.014Z,2.4
2022-11-23T01:20:18.453Z,2.4
2022-11-23T01:21:18.948Z,2.4
2022-11-23T01:22:18.364Z,2.4
2022-11-23T01:23:18.656Z,2.4
2022-11-23T01:24:18.005Z,2.4
2022-11-23T01:25:18.498Z,2.4
2022-11-23T01:26:18.922Z,2.4
2022-11-23T01:27:17.663Z,2.4
2022-11-23T01:28:18.913Z,2.4
2022-11-23T01:29:18.301Z,2.4
2022-11-23T01:30:18.296Z,2.4
2022-11-23T01:31:17.888Z,2.4
2022-11-23T01:32:18.299Z,2.4
2022-11-23T01:33:17.923Z,2.4
2022-11-23T01:34:18.079Z,2.4
2022-11-23T01:35:18.449Z,2.4
2022-11-23T01:36:18.980Z,2.4
2022-11-23T01:37:18.309Z,2.4
2022-11-23T01:38:22.375Z,2.4
2022-11-23T01:39:18.235Z,2.4
2022-11-23T01:40:18.999Z,2.4
2022-11-23T01:41:18.278Z,2.4
2022-11-23T01:42:22.173Z,2.4
2022-11-23T01:43:18.519Z,2.4
2022-11-23T01:44:18.835Z,2.5
2022-11-23T01:45:18.292Z,2.4
2022-11-23T01:46:18.406Z,2.4
2022-11-23T01:47:17.288Z,2
2022-11-23T01:48:18.570Z,2.4
2022-11-23T01:49:18.587Z,2.4
2022-11-23T01:50:18.546Z,2.4
2022-11-23T01:51:18.542Z,2.4
2022-11-23T01:52:17.513Z,2.4
2022-11-23T01:53:18.207Z,2.4
2022-11-23T01:54:18.664Z,2.5
2022-11-23T01:55:18.578Z,2.5
2022-11-23T01:56:18.802Z,2.5
2022-11-23T01:57:18.174Z,2
2022-11-23T01:58:18.516Z,2
2022-11-23T01:59:18.887Z,2.5
2022-11-23T02:00:18.280Z,2.5
2022-11-23T02:01:18.724Z,2.5
2022-11-23T02:02:18.107Z,2
2022-11-23T02:03:18.528Z,2.5
2022-11-23T02:04:18.870Z,2.5
2022-11-23T02:05:18.227Z,2.5
2022-11-23T02:06:18.721Z,2.5
2022-11-23T02:07:18.282Z,2.5
2022-11-23T02:08:18.572Z,2.5
2022-11-23T02:09:18.358Z,2.5
2022-11-23T02:10:18.717Z,2.6
2022-11-23T02:11:18.278Z,2.6
2022-11-23T02:12:18.513Z,2.6
2022-11-23T02:13:18.885Z,2.6
2022-11-23T02:14:23.319Z,2.6
2022-11-23T02:15:17.503Z,2.6
2022-11-23T02:16:17.541Z,2.6
2022-11-23T02:17:17.227Z,2.6
2022-11-23T02:18:17.228Z,2
2022-11-23T02:19:18.662Z,2.6
2022-11-23T02:20:18.616Z,2.6
2022-11-23T02:21:18.989Z,2.6
2022-11-23T02:22:18.423Z,2.6
2022-11-23T02:23:18.947Z,2.6
2022-11-23T02:24:18.326Z,2.6
2022-11-23T02:25:18.693Z,2.6
2022-11-23T02:26:18.175Z,2.6
2022-11-23T02:27:18.696Z,2.6
2022-11-23T02:28:18.042Z,2.6
2022-11-23T02:29:18.456Z,2.6
2022-11-23T02:30:18.624Z,2.6
2022-11-23T02:31:18.525Z,2.6
2022-11-23T02:32:18.966Z,2.6
2022-11-23T02:33:18.313Z,2.6
2022-11-23T02:34:17.362Z,2.6
2022-11-23T02:35:18.093Z,2.7
2022-11-23T02:36:18.497Z,2.6
2022-11-23T02:37:18.427Z,2.6
2022-11-23T02:38:18.830Z,2.7
2022-11-23T02:39:17.294Z,2.7
2022-11-23T02:40:18.694Z,2.6
2022-11-23T02:41:18.250Z,2.6
2022-11-23T02:42:18.038Z,2.6
2022-11-23T02:43:18.832Z,2.6
2022-11-23T02:44:18.185Z,2.7
2022-11-23T02:45:18.280Z,2.7
2022-11-23T02:46:18.194Z,2.7
2022-11-23T02:47:18.780Z,2
2022-11-23T02:48:19.021Z,2
2022-11-23T02:49:18.330Z,2.7
2022-11-23T02:50:18.590Z,2.7
2022-11-23T02:51:18.981Z,2.7
2022-11-23T02:52:18.379Z,2.7
2022-11-23T02:53:18.755Z,2.7
2022-11-23T02:54:18.729Z,2.7
2022-11-23T02:55:18.223Z,2.8
2022-11-23T02:56:18.545Z,2.7
2022-11-23T02:57:18.821Z,2.7
2022-11-23T02:58:18.790Z,2.7
2022-11-23T02:59:18.198Z,2
2022-11-23T03:00:18.996Z,2.8
2022-11-23T03:01:18.070Z,2.8
2022-11-23T03:02:17.479Z,2.8
2022-11-23T03:03:18.414Z,2
2022-11-23T03:04:20.803Z,2.8
2022-11-23T03:05:18.920Z,2.8
2022-11-23T03:06:18.771Z,2.8
2022-11-23T03:07:18.806Z,2
2022-11-23T03:08:18.634Z,2.8
2022-11-23T03:09:18.983Z,2.8
2022-11-23T03:10:18.335Z,2.8
2022-11-23T03:11:19.057Z,2.8
2022-11-23T03:12:18.413Z,2.8
2022-11-23T03:13:18.716Z,2.8
2022-11-23T03:14:18.726Z,2.8
2022-11-23T03:15:18.200Z,2.8
2022-11-23T03:16:18.815Z,2.8
2022-11-23T03:17:18.311Z,2.8
2022-11-23T03:18:18.710Z,2.8
2022-11-23T03:19:19.034Z,2.8
2022-11-23T03:20:17.520Z,2.8
2022-11-23T03:21:17.586Z,2.8
2022-11-23T03:22:18.258Z,2.8
2022-11-23T03:23:18.666Z,2.8
2022-11-23T03:24:17.805Z,2.8
2022-11-23T03:25:18.109Z,2.8
2022-11-23T03:26:18.862Z,2.8
2022-11-23T03:27:18.285Z,2.8
2022-11-23T03:28:18.664Z,2.8
2022-11-23T03:29:18.043Z,2
2022-11-23T03:30:18.417Z,2
2022-11-23T03:31:18.709Z,2.8
2022-11-23T03:32:19.031Z,2.8
2022-11-23T03:33:18.419Z,2.9
2022-11-23T03:34:18.672Z,2.9
2022-11-23T03:35:18.502Z,2.9
2022-11-23T03:36:19.085Z,2.9
2022-11-23T03:37:18.320Z,2.9
2022-11-23T03:38:18.949Z,2.9
2022-11-23T03:39:18.364Z,2.9
2022-11-23T03:40:18.217Z,2.9
2022-11-23T03:41:18.541Z,2.9
2022-11-23T03:42:19.082Z,2.9
2022-11-23T03:43:18.350Z,2.9
2022-11-23T03:44:18.208Z,2.9
2022-11-23T03:45:18.763Z,2.9
2022-11-23T03:46:18.444Z,2
2022-11-23T03:47:18.973Z,3
2022-11-23T03:48:18.336Z,3
2022-11-23T03:49:18.779Z,2.9
2022-11-23T03:50:18.081Z,3
2022-11-23T03:51:18.401Z,3
2022-11-23T03:52:18.870Z,3
2022-11-23T03:53:18.204Z,3
2022-11-23T03:54:18.660Z,3
2022-11-23T03:55:18.987Z,2.9
2022-11-23T03:56:18.412Z,2.9
2022-11-23T03:57:18.827Z,3
2022-11-23T03:58:18.173Z,3
2022-11-23T03:59:18.363Z,3
2022-11-23T04:00:18.756Z,3
2022-11-23T04:01:18.874Z,3
2022-11-23T04:02:18.752Z,3
2022-11-23T04:03:18.219Z,3
2022-11-23T04:04:18.659Z,3
2022-11-23T04:05:18.952Z,3
2022-11-23T04:06:18.374Z,3
2022-11-23T04:07:18.890Z,3
2022-11-23T04:08:18.475Z,3
2022-11-23T04:09:18.817Z,3
2022-11-23T04:10:18.907Z,3
2022-11-23T04:11:18.296Z,3
2022-11-23T04:12:18.562Z,3
2022-11-23T04:13:18.929Z,3
2022-11-23T04:14:18.379Z,3
2022-11-23T04:15:18.701Z,3
2022-11-23T04:16:18.761Z,3
2022-11-23T04:17:18.080Z,3
2022-11-23T04:18:18.488Z,3
2022-11-23T04:19:18.653Z,3
2022-11-23T04:20:18.040Z,3
2022-11-23T04:21:18.558Z,3
2022-11-23T04:22:17.872Z,3
2022-11-23T04:23:18.596Z,3
2022-11-23T04:24:18.640Z,3
2022-11-23T04:25:19.054Z,3
2022-11-23T04:26:18.249Z,3
2022-11-23T04:27:18.796Z,3
2022-11-23T04:28:18.891Z,3
2022-11-23T04:29:18.210Z,2.9
2022-11-23T04:30:18.603Z,2.9
2022-11-23T04:31:18.588Z,2.9
2022-11-23T04:32:18.627Z,2.9
2022-11-23T04:33:18.050Z,2.9
2022-11-23T04:34:18.179Z,2.9
2022-11-23T04:35:18.605Z,2.9
2022-11-23T04:36:18.348Z,2.9
2022-11-23T04:37:18.676Z,2.9
2022-11-23T04:38:19.055Z,2.9
2022-11-23T04:39:18.517Z,2
2022-11-23T04:40:19.541Z,2.9
2022-11-23T04:41:18.304Z,2.9
2022-11-23T04:42:18.655Z,2.9
2022-11-23T04:43:17.980Z,2.9
2022-11-23T04:44:18.507Z,2.8
2022-11-23T04:45:18.794Z,2.9
2022-11-23T04:46:18.148Z,2.9
2022-11-23T04:47:17.497Z,2.8
2022-11-23T04:48:18.290Z,2
2022-11-23T04:49:18.776Z,2.8
2022-11-23T04:50:17.378Z,2.8
2022-11-23T04:51:18.992Z,2.8
2022-11-23T04:52:18.798Z,2.8
2022-11-23T04:53:18.763Z,2.8
2022-11-23T04:54:18.323Z,2.8
2022-11-23T04:55:18.815Z,2.8
2022-11-23T04:56:18.838Z,2.8
2022-11-23T04:57:19.063Z,2
2022-11-23T04:58:18.459Z,2
2022-11-23T04:59:18.841Z,2.8
2022-11-23T05:00:19.124Z,2.8
2022-11-23T05:01:18.660Z,2.8
2022-11-23T05:02:18.845Z,2.8
2022-11-23T05:03:18.120Z,2
2022-11-23T05:04:22.086Z,2.8
2022-11-23T05:05:18.724Z,2.8
2022-11-23T05:06:19.019Z,2.8
2022-11-23T05:07:18.690Z,2.8
2022-11-23T05:08:18.911Z,2.8
2022-11-23T05:09:18.233Z,2.8
2022-11-23T05:10:18.283Z,2.8
2022-11-23T05:11:17.681Z,2.8
2022-11-23T05:12:17.679Z,2.8
2022-11-23T05:13:18.937Z,2.8
2022-11-23T05:14:18.338Z,2.8
2022-11-23T05:15:18.522Z,2.8
2022-11-23T05:16:18.640Z,2.8
2022-11-23T05:17:18.420Z,2.7
2022-11-23T05:18:18.759Z,2.7
2022-11-23T05:19:18.257Z,2.7
2022-11-23T05:20:18.124Z,2.7
2022-11-23T05:21:18.440Z,2.7
2022-11-23T05:22:18.985Z,2.7
2022-11-23T05:23:18.430Z,2.7
2022-11-23T05:24:18.887Z,2.7
2022-11-23T05:25:18.370Z,2.7
2022-11-23T05:26:18.587Z,2.7
2022-11-23T05:27:18.847Z,2.6
2022-11-23T05:28:43.864Z,2.6
2022-11-23T05:29:18.792Z,2.6
2022-11-23T05:30:18.184Z,2.6
2022-11-23T05:31:19.106Z,2.6
2022-11-23T05:32:18.527Z,2.5
2022-11-23T05:33:18.916Z,2.5
2022-11-23T05:34:18.177Z,2.5
2022-11-23T05:35:18.464Z,2.5
2022-11-23T05:36:18.628Z,2.5
2022-11-23T05:37:19.097Z,2.5
2022-11-23T05:38:18.596Z,2.5
2022-11-23T05:39:17.687Z,2.5
2022-11-23T05:40:18.912Z,2.5
2022-11-23T05:41:19.127Z,2.5
2022-11-23T05:42:19.046Z,2.5
2022-11-23T05:43:18.365Z,2.5
2022-11-23T05:44:18.373Z,2.5
2022-11-23T05:45:18.262Z,2.6
2022-11-23T05:46:18.788Z,2.6
2022-11-23T05:47:18.119Z,2.6
2022-11-23T05:48:18.359Z,2.6
2022-11-23T05:49:18.748Z,2.6
2022-11-23T05:50:18.271Z,2.6
2022-11-23T05:51:18.746Z,2
2022-11-23T05:52:18.560Z,2
2022-11-23T05:53:18.792Z,2.6
2022-11-23T05:54:18.361Z,2.6
2022-11-23T05:55:18.758Z,2.6
2022-11-23T05:56:18.109Z,2.6
2022-11-23T05:57:18.457Z,2.6
2022-11-23T05:58:18.951Z,2.6
2022-11-23T05:59:18.212Z,2.6
2022-11-23T06:00:18.661Z,2.6
2022-11-23T06:01:18.521Z,2.6
2022-11-23T06:02:18.557Z,2.6
2022-11-23T06:03:17.517Z,2.6
2022-11-23T06:04:18.527Z,2.6
2022-11-23T06:05:17.139Z,2.6
2022-11-23T06:06:18.924Z,2.6
2022-11-23T06:07:18.658Z,2
2022-11-23T06:08:18.965Z,2
2022-11-23T06:09:18.587Z,2
2022-11-23T06:10:18.458Z,2.6
2022-11-23T06:11:18.534Z,2.6
2022-11-23T06:12:18.735Z,2.7
2022-11-23T06:13:18.397Z,2.7
2022-11-23T06:14:18.899Z,2.7
2022-11-23T06:15:18.798Z,2.7
2022-11-23T06:16:18.918Z,2.7
2022-11-23T06:17:18.644Z,2.7
2022-11-23T06:18:19.113Z,2
2022-11-23T06:19:18.877Z,2.7
2022-11-23T06:20:18.341Z,2.6
2022-11-23T06:21:18.614Z,2.6
2022-11-23T06:22:19.018Z,2.6
2022-11-23T06:23:18.496Z,2
2022-11-23T06:24:18.868Z,2.6
2022-11-23T06:25:18.272Z,2.6
2022-11-23T06:26:18.618Z,2.6
2022-11-23T06:27:22.304Z,2.6
2022-11-23T06:28:18.906Z,2.6
2022-11-23T06:29:18.636Z,2.6
2022-11-23T06:30:18.606Z,2
2022-11-23T06:31:18.997Z,2.6
2022-11-23T06:32:18.219Z,2
2022-11-23T06:33:18.937Z,2
2022-11-23T06:34:18.705Z,2
2022-11-23T06:35:18.916Z,2.5
2022-11-23T06:36:18.454Z,2.5
2022-11-23T06:37:19.042Z,2.5
2022-11-23T06:38:18.427Z,2.5
2022-11-23T06:39:18.910Z,2.5
2022-11-23T06:40:18.447Z,2.5
2022-11-23T06:41:18.546Z,2.5
2022-11-23T06:42:42.677Z,2
2022-11-23T06:43:18.536Z,2
2022-11-23T06:44:18.951Z,2.5
2022-11-23T06:45:18.319Z,2.4
2022-11-23T06:46:18.193Z,2.4
2022-11-23T06:47:27.774Z,2.5
2022-11-23T06:48:18.490Z,2.5
2022-11-23T06:49:18.819Z,2.5
2022-11-23T06:50:18.066Z,2.5
2022-11-23T06:51:18.626Z,2.4
2022-11-23T06:52:18.956Z,2.4
2022-11-23T06:53:17.210Z,2.4
2022-11-23T06:54:18.307Z,2.4
2022-11-23T06:55:18.557Z,2
2022-11-23T06:56:19.002Z,2.4
2022-11-23T06:57:18.981Z,2.4
2022-11-23T06:58:18.270Z,2.4
2022-11-23T06:59:18.715Z,2.4
2022-11-23T07:00:19.262Z,2.4
2022-11-23T07:01:18.476Z,2.5
2022-11-23T07:02:18.891Z,2.5
2022-11-23T07:03:18.431Z,2.5
2022-11-23T07:04:18.524Z,2.5
2022-11-23T07:05:18.763Z,2
2022-11-23T07:06:19.102Z,2.5
2022-11-23T07:07:19.085Z,2.6
2022-11-23T07:08:18.353Z,2.6
2022-11-23T07:09:18.667Z,2.6
2022-11-23T07:10:18.998Z,2.6
2022-11-23T07:11:18.340Z,2.6
2022-11-23T07:12:19.167Z,2.6
2022-11-23T07:13:18.502Z,2.6
2022-11-23T07:14:18.420Z,2.6
2022-11-23T07:15:18.594Z,2.6
2022-11-23T07:16:18.314Z,2
2022-11-23T07:17:21.726Z,2.7
2022-11-23T07:18:18.306Z,2.7
2022-11-23T07:19:18.300Z,2
2022-11-23T07:20:18.628Z,2.7
2022-11-23T07:21:18.652Z,2.7
2022-11-23T07:22:19.035Z,2.7
2022-11-23T07:23:18.586Z,2.7
2022-11-23T07:24:19.010Z,2.8
2022-11-23T07:25:18.874Z,2.7
2022-11-23T07:26:18.216Z,2.8
2022-11-23T07:27:18.551Z,2.8
2022-11-23T07:28:18.992Z,2.8
2022-11-23T07:29:18.328Z,2.8
2022-11-23T07:30:18.840Z,2
2022-11-23T07:31:18.917Z,2
2022-11-23T07:32:18.274Z,2.8
2022-11-23T07:33:18.532Z,2.8
2022-11-23T07:34:18.842Z,2.8
2022-11-23T07:35:18.191Z,2.8
2022-11-23T07:36:18.505Z,2.9
2022-11-23T07:37:18.918Z,2
2022-11-23T07:38:18.864Z,2
2022-11-23T07:39:18.583Z,2.9
2022-11-23T07:40:18.701Z,2.9
2022-11-23T07:41:18.594Z,2.9
2022-11-23T07:42:45.404Z,3.1
2022-11-23T07:43:18.880Z,3.1
2022-11-23T07:44:18.283Z,3.1
2022-11-23T07:45:18.867Z,3.1
2022-11-23T07:46:19.007Z,3.1
2022-11-23T07:47:18.275Z,3.1
2022-11-23T07:48:18.677Z,3.2
2022-11-23T07:49:18.561Z,3.2
2022-11-23T07:50:19.030Z,3.2
2022-11-23T07:51:18.278Z,3.2
2022-11-23T07:52:18.779Z,3.3
2022-11-23T07:53:18.099Z,3.3
2022-11-23T07:54:25.508Z,3.4
2022-11-23T07:55:18.815Z,3
2022-11-23T07:56:18.209Z,3
2022-11-23T07:57:18.208Z,3.5
2022-11-23T07:58:17.640Z,3.5
2022-11-23T07:59:18.071Z,3.6
2022-11-23T08:00:18.683Z,3.6
2022-11-23T08:01:18.638Z,3.6
2022-11-23T08:02:19.010Z,3.6
2022-11-23T08:03:35.397Z,3.7
2022-11-23T08:04:18.203Z,3.8
2022-11-23T08:05:18.741Z,3.8
2022-11-23T08:06:18.312Z,3.9
2022-11-23T08:07:19.030Z,3.9
2022-11-23T08:08:18.877Z,4
2022-11-23T08:09:18.917Z,4
2022-11-23T08:10:18.125Z,4
2022-11-23T08:11:18.507Z,4
2022-11-23T08:12:18.953Z,4
2022-11-23T08:13:18.148Z,4.1
2022-11-23T08:14:18.472Z,4.1
2022-11-23T08:15:18.941Z,4.2
2022-11-23T08:16:19.044Z,4.2
2022-11-23T08:17:18.454Z,4.3
2022-11-23T08:18:18.643Z,4.3
2022-11-23T08:19:19.155Z,4.3
2022-11-23T08:20:18.183Z,4.3
2022-11-23T08:21:18.139Z,4.4
2022-11-23T08:22:20.145Z,4.4
2022-11-23T08:23:19.003Z,4.4
2022-11-23T08:24:18.391Z,4.6
2022-11-23T08:25:17.328Z,4.6
2022-11-23T08:26:18.716Z,4.7
2022-11-23T08:27:18.454Z,4.7
2022-11-23T08:28:18.255Z,4.9
2022-11-23T08:29:18.659Z,4
2022-11-23T08:30:18.631Z,4
2022-11-23T08:31:18.917Z,5.1
2022-11-23T08:32:19.076Z,5.2
2022-11-23T08:33:18.431Z,5.3
2022-11-23T08:34:18.262Z,5.3
2022-11-23T08:35:18.551Z,4
2022-11-23T08:36:18.852Z,4
2022-11-23T08:37:18.330Z,5.5
2022-11-23T08:38:18.714Z,5.5
2022-11-23T08:39:19.032Z,5.6
2022-11-23T08:40:25.738Z,4
2022-11-23T08:41:19.006Z,5.7
2022-11-23T08:42:18.446Z,5.8
2022-11-23T08:43:18.807Z,5.9
2022-11-23T08:44:18.246Z,6
2022-11-23T08:45:18.591Z,6
2022-11-23T08:46:18.690Z,6.1
2022-11-23T08:47:18.970Z,6.1
2022-11-23T08:48:18.380Z,6.3
2022-11-23T08:49:18.727Z,6.4
2022-11-23T08:50:19.028Z,6.4
2022-11-23T08:51:18.501Z,6.5
2022-11-23T08:52:18.716Z,6.6
2022-11-23T08:53:17.817Z,6.7
2022-11-23T08:54:18.818Z,6.7
2022-11-23T08:55:19.188Z,6.8
2022-11-23T08:56:18.347Z,6.8
2022-11-23T08:57:18.653Z,6.9
2022-11-23T08:58:18.563Z,7
2022-11-23T08:59:18.493Z,7.2
2022-11-23T09:00:18.504Z,7.2
2022-11-23T09:01:19.354Z,7.2
2022-11-23T09:02:18.380Z,7.3
2022-11-23T09:03:18.543Z,7.3
2022-11-23T09:04:24.671Z,7.3
2022-11-23T09:05:18.893Z,7.3
2022-11-23T09:06:18.200Z,7.4
2022-11-23T09:07:18.989Z,7.4
2022-11-23T09:08:19.170Z,7.4
2022-11-23T09:09:19.201Z,7.4
2022-11-23T09:10:22.953Z,7.5
2022-11-23T09:11:18.303Z,7.5
2022-11-23T09:12:18.708Z,7.5
2022-11-23T09:13:18.942Z,7.6
2022-11-23T09:14:18.327Z,7.6
2022-11-23T09:15:18.467Z,7.7
2022-11-23T09:16:17.703Z,7.7
2022-11-23T09:17:18.771Z,7.8
2022-11-23T09:18:17.584Z,7.8
2022-11-23T09:19:18.660Z,8
2022-11-23T09:20:19.026Z,8
2022-11-23T09:21:18.659Z,8
2022-11-23T09:22:18.975Z,8.2
2022-11-23T09:23:18.845Z,8.3
2022-11-23T09:24:19.228Z,8.4
2022-11-23T09:25:18.677Z,8.4
2022-11-23T09:26:18.222Z,8.5
2022-11-23T09:27:18.918Z,8.6
2022-11-23T09:28:18.302Z,8.6
2022-11-23T09:29:18.756Z,8.6
2022-11-23T09:30:19.040Z,8.8
2022-11-23T09:31:18.704Z,8.8
2022-11-23T09:32:19.111Z,8.9
2022-11-23T09:33:18.673Z,8.9
2022-11-23T09:34:19.100Z,9
2022-11-23T09:35:18.183Z,9
2022-11-23T09:36:18.424Z,9.2
2022-11-23T09:37:18.346Z,9.3
2022-11-23T09:38:18.033Z,9.5
2022-11-23T09:39:18.296Z,9.6
2022-11-23T09:40:19.029Z,8
2022-11-23T09:41:18.714Z,9.6
2022-11-23T09:42:18.864Z,9.7
2022-11-23T09:43:18.447Z,9.7
2022-11-23T09:44:18.957Z,9.6
2022-11-23T09:45:18.538Z,9.6
2022-11-23T09:46:18.591Z,8
2022-11-23T09:47:19.017Z,9.6
2022-11-23T09:48:18.286Z,9.7
2022-11-23T09:49:17.576Z,9.7
2022-11-23T09:50:18.803Z,9.8
2022-11-23T09:51:19.154Z,9.9
2022-11-23T09:52:18.408Z,10
2022-11-23T09:53:18.515Z,10
2022-11-23T09:54:18.983Z,10
2022-11-23T09:55:18.619Z,10
2022-11-23T09:56:19.130Z,10
2022-11-23T09:57:19.112Z,10
2022-11-23T09:58:18.510Z,10
2022-11-23T09:59:18.456Z,9.9
2022-11-23T10:00:19.094Z,9.9
2022-11-23T10:01:18.997Z,10
2022-11-23T10:02:18.712Z,10.2
2022-11-23T10:03:17.221Z,9
2022-11-23T10:04:19.131Z,10.4
2022-11-23T10:05:18.414Z,10.5
2022-11-23T10:06:18.860Z,9
2022-11-23T10:07:18.875Z,10.8
2022-11-23T10:08:18.916Z,10.7
2022-11-23T10:09:18.430Z,10.7
2022-11-23T10:10:18.539Z,10.6
2022-11-23T10:11:18.852Z,10.5
2022-11-23T10:12:18.284Z,10.4
2022-11-23T10:13:18.519Z,10.4
2022-11-23T10:14:18.887Z,10.2
2022-11-23T10:15:18.205Z,10.2
2022-11-23T10:16:18.663Z,10.1
2022-11-23T10:17:19.143Z,10.1
2022-11-23T10:18:18.529Z,10.1
2022-11-23T10:19:18.917Z,10.1
2022-11-23T10:20:18.373Z,10
2022-11-23T10:21:18.639Z,10
2022-11-23T10:22:18.500Z,10
2022-11-23T10:23:18.688Z,10.1
2022-11-23T10:24:18.766Z,10.1
2022-11-23T10:25:19.195Z,9
2022-11-23T10:26:18.890Z,9
2022-11-23T10:27:18.309Z,10.1
2022-11-23T10:28:18.420Z,10.1
2022-11-23T10:29:18.872Z,10.1
2022-11-23T10:30:18.510Z,10.1
2022-11-23T10:31:18.981Z,10.1
2022-11-23T10:32:18.501Z,10
2022-11-23T10:33:18.023Z,10
2022-11-23T10:34:18.283Z,10
2022-11-23T10:35:18.297Z,10
2022-11-23T10:36:17.588Z,9.9
2022-11-23T10:37:18.999Z,9
2022-11-23T10:38:22.862Z,9.8
2022-11-23T10:39:18.529Z,9.8
2022-11-23T10:40:18.361Z,9.8
2022-11-23T10:41:18.686Z,9.8
2022-11-23T10:42:19.151Z,9.8
2022-11-23T10:43:18.414Z,9.8
2022-11-23T10:44:18.987Z,9.8
2022-11-23T10:45:18.348Z,9.8
2022-11-23T10:46:18.409Z,9.8
2022-11-23T10:47:18.532Z,9.8
2022-11-23T10:48:18.921Z,9.7
2022-11-23T10:49:18.241Z,9.6
2022-11-23T10:50:18.654Z,9.6
2022-11-23T10:51:19.023Z,9.6
2022-11-23T10:52:18.649Z,9.6
2022-11-23T10:53:18.889Z,9.6
2022-11-23T10:54:18.266Z,9.6
2022-11-23T10:55:18.307Z,9.6
2022-11-23T10:56:18.728Z,9.5
2022-11-23T10:57:18.812Z,9.5
2022-11-23T10:58:18.235Z,9.4
2022-11-23T10:59:18.276Z,9.4
2022-11-23T11:00:18.869Z,9.4
2022-11-23T11:01:18.662Z,9.3
2022-11-23T11:02:17.893Z,9.3
2022-11-23T11:03:18.192Z,9.3
2022-11-23T11:04:18.296Z,9.2
2022-11-23T11:05:18.375Z,9.2
2022-11-23T11:06:18.749Z,9.2
2022-11-23T11:07:19.193Z,9.1
2022-11-23T11:08:18.463Z,9.2
2022-11-23T11:09:17.887Z,9.1
2022-11-23T11:10:18.192Z,9.1
2022-11-23T11:11:17.734Z,8
2022-11-23T11:12:19.076Z,9
2022-11-23T11:13:18.552Z,9
2022-11-23T11:14:18.958Z,8
2022-11-23T11:15:18.179Z,8
2022-11-23T11:16:18.547Z,9
2022-11-23T11:17:18.901Z,9
2022-11-23T11:18:19.100Z,9
2022-11-23T11:19:18.565Z,9
2022-11-23T11:20:18.600Z,9
2022-11-23T11:21:18.859Z,9
2022-11-23T11:22:18.249Z,9
2022-11-23T11:23:17.375Z,9
2022-11-23T11:24:19.172Z,9
2022-11-23T11:25:18.420Z,9
2022-11-23T11:26:18.473Z,9
2022-11-23T11:27:18.902Z,9
2022-11-23T11:28:18.787Z,9
2022-11-23T11:29:17.727Z,9
2022-11-23T11:30:18.109Z,9
2022-11-23T11:31:18.514Z,9
2022-11-23T11:32:18.653Z,9
2022-11-23T11:33:18.073Z,9
2022-11-23T11:34:17.663Z,9
2022-11-23T11:35:24.751Z,9.1
2022-11-23T11:36:18.831Z,9.2
2022-11-23T11:37:18.315Z,9.3
2022-11-23T11:38:18.385Z,9.3
2022-11-23T11:39:23.309Z,9.4
2022-11-23T11:40:18.554Z,9.6
2022-11-23T11:41:18.799Z,9.7
2022-11-23T11:42:18.931Z,9.7
2022-11-23T11:43:18.720Z,10
2022-11-23T11:44:18.736Z,10
2022-11-23T11:45:19.173Z,10.1
2022-11-23T11:46:33.826Z,10.1
2022-11-23T11:47:18.904Z,10.2
2022-11-23T11:48:19.248Z,10.2
2022-11-23T11:49:18.578Z,10.3
2022-11-23T11:50:19.131Z,10.3
2022-11-23T11:51:18.608Z,10.4
2022-11-23T11:52:19.093Z,8
2022-11-23T11:53:18.403Z,10.6
2022-11-23T11:54:18.570Z,10.5
2022-11-23T11:55:18.952Z,10.6
2022-11-23T11:56:18.671Z,10.6
2022-11-23T11:57:18.412Z,10.6
2022-11-23T11:58:18.571Z,10.7
2022-11-23T11:59:19.103Z,10.6
2022-11-23T12:00:18.436Z,8
2022-11-23T12:01:18.328Z,10.8
2022-11-23T12:02:19.213Z,10.8
2022-11-23T12:03:18.642Z,10
2022-11-23T12:04:18.830Z,10.7
2022-11-23T12:05:19.047Z,10.6
2022-11-23T12:06:22.448Z,10.6
2022-11-23T12:07:19.221Z,10.5
2022-11-23T12:08:18.529Z,10.5
2022-11-23T12:09:19.135Z,10.6
2022-11-23T12:10:18.650Z,10.6
2022-11-23T12:11:18.991Z,10.6
2022-11-23T12:12:19.075Z,10.8
2022-11-23T12:13:18.467Z,10.8
2022-11-23T12:14:19.126Z,10.8
2022-11-23T12:15:52.817Z,11
2022-11-23T12:17:36.900Z,11
2022-11-23T12:18:18.705Z,9
2022-11-23T12:19:19.030Z,10.8
2022-11-23T12:20:19.242Z,9
2022-11-23T12:21:18.818Z,10.8
2022-11-23T12:22:19.148Z,10.7
2022-11-23T12:23:18.333Z,10.6
2022-11-23T12:24:19.121Z,9
2022-11-23T12:25:18.481Z,10.5
2022-11-23T12:26:17.758Z,10.5
2022-11-23T12:27:18.742Z,9
2022-11-23T12:28:18.786Z,10.3
2022-11-23T12:29:19.180Z,10.2
2022-11-23T12:30:18.553Z,10.2
2022-11-23T12:31:18.303Z,10.1
2022-11-23T12:32:18.541Z,10.1
2022-11-23T12:33:18.925Z,10.1
2022-11-23T12:34:19.061Z,10.1
2022-11-23T12:35:18.615Z,9
2022-11-23T12:36:24.527Z,9
2022-11-23T12:37:18.975Z,10.2
2022-11-23T12:38:19.038Z,10.2
2022-11-23T12:39:18.267Z,10.2
2022-11-23T12:40:18.702Z,10.1
2022-11-23T12:41:19.047Z,10.1
2022-11-23T12:42:19.063Z,10.1
2022-11-23T12:43:18.510Z,10
2022-11-23T12:44:18.362Z,10
2022-11-23T12:45:18.840Z,10
2022-11-23T12:46:17.801Z,10
2022-11-23T12:47:17.669Z,10
2022-11-23T12:48:18.839Z,9.8
2022-11-23T12:49:18.372Z,9.8
2022-11-23T12:50:18.851Z,9.8
2022-11-23T12:51:18.789Z,9.6
2022-11-23T12:52:18.244Z,9.6
2022-11-23T12:53:18.942Z,9.5
2022-11-23T12:54:18.921Z,9.5
2022-11-23T12:55:23.790Z,9.4
2022-11-23T12:56:18.424Z,9.3
2022-11-23T12:57:18.876Z,9.3
2022-11-23T12:58:18.740Z,9.3
2022-11-23T12:59:19.200Z,9.3
2022-11-23T13:00:19.097Z,9.3
2022-11-23T13:01:18.546Z,9
2022-11-23T13:02:19.152Z,9.2
2022-11-23T13:03:18.474Z,9.2
2022-11-23T13:04:19.066Z,9.2
2022-11-23T13:05:18.371Z,9.2
2022-11-23T13:06:18.515Z,9.2
2022-11-23T13:07:49.926Z,9.3
2022-11-23T13:08:18.730Z,9.2
2022-11-23T13:09:17.854Z,9.2
2022-11-23T13:10:18.379Z,8
2022-11-23T13:11:18.340Z,9.3
2022-11-23T13:12:18.771Z,9.3
2022-11-23T13:13:20.419Z,9.3
2022-11-23T13:14:18.990Z,9.3
2022-11-23T13:15:18.516Z,9.4
2022-11-23T13:16:19.506Z,9.4
2022-11-23T13:17:18.592Z,9.4
2022-11-23T13:18:18.707Z,9.4
2022-11-23T13:19:18.576Z,9.4
2022-11-23T13:20:19.025Z,9.4
2022-11-23T13:21:18.471Z,9.2
2022-11-23T13:22:18.806Z,9.2
2022-11-23T13:23:19.165Z,9.2
2022-11-23T13:24:18.448Z,9.2
2022-11-23T13:25:18.895Z,9.2
2022-11-23T13:26:18.312Z,9.2
2022-11-23T13:27:18.644Z,9.1
2022-11-23T13:28:17.907Z,9
2022-11-23T13:29:18.325Z,9
2022-11-23T13:30:18.500Z,8.9
2022-11-23T13:31:20.075Z,8.9
2022-11-23T13:32:19.023Z,8.8
2022-11-23T13:33:21.178Z,8.8
2022-11-23T13:34:18.724Z,8.8
2022-11-23T13:35:18.814Z,8.8
2022-11-23T13:36:33.344Z,8.7
2022-11-23T13:37:19.048Z,8.7
2022-11-23T13:38:18.223Z,8.6
2022-11-23T13:39:18.423Z,8.6
2022-11-23T13:40:18.887Z,8.6
2022-11-23T13:41:18.283Z,8.6
2022-11-23T13:42:18.852Z,8.6
2022-11-23T13:43:18.604Z,8.4
2022-11-23T13:44:18.897Z,8.5
2022-11-23T13:45:18.301Z,8
2022-11-23T13:46:19.388Z,8.4
2022-11-23T13:47:17.756Z,8.4
2022-11-23T13:48:58.810Z,8.4
2022-11-23T13:50:17.880Z,8.4
2022-11-23T13:51:17.750Z,8.3
2022-11-23T13:52:18.756Z,8.3
2022-11-23T13:53:18.491Z,8.3
2022-11-23T13:54:18.607Z,8.3
2022-11-23T13:55:18.587Z,8.3
2022-11-23T13:56:18.898Z,8